Time;durP1;ratioP1;P1;durP2;ratioP2;P2;SDS_P1;SDS_P2;PMS_P1;PMS_P2;Temp;Humidity;BMP_temperature;BMP_pressure;BME280_temperature;BME280_humidity;BME280_pressure;Samples;Min_cycle;Max_cycle;Signal;HPM_P1;HPM_P2
2023/01/03 00:01:38;;;;;;;;;0.50;0.00;;;;;11.30;71.04;101521.84;5056474;28;45849;-68
2023/01/03 00:04:04;;;;;;;;;1.00;1.00;;;;;11.58;71.45;101566.56;5056197;28;45611;-81
2023/01/03 00:06:38;;;;;;;;;1.00;0.50;;;;;11.56;71.62;101574.38;5055968;28;45507;-81
2023/01/03 00:09:08;;;;;;;;;3.25;2.00;;;;;11.50;71.90;101569.78;5056238;28;45453;-73
2023/01/03 00:14:23;;;;;;;;;3.50;1.75;;;;;11.39;72.67;101570.16;5053872;28;46135;-68
2023/01/03 00:16:58;;;;;;;;;1.00;1.00;;;;;11.33;72.23;101552.47;5055782;28;45589;-71
2023/01/03 00:19:25;;;;;;;;;3.25;2.00;;;;;11.47;71.90;101569.63;5055733;28;46040;-78
2023/01/03 00:21:51;;;;;;;;;5.00;2.25;;;;;11.45;72.27;101547.75;5054702;28;45631;-73
2023/01/03 00:24:17;;;;;;;;;1.75;1.00;;;;;11.51;72.04;101557.56;5056047;28;45312;-70
2023/01/03 00:26:43;;;;;;;;;3.00;2.75;;;;;11.55;71.59;101562.09;5055763;28;45410;-72
2023/01/03 00:29:10;;;;;;;;;1.00;1.00;;;;;11.57;71.62;101559.56;5055803;28;45308;-67
2023/01/03 00:31:36;;;;;;;;;1.50;1.50;;;;;11.51;71.41;101544.50;5051597;28;45424;-80
2023/01/03 00:34:03;;;;;;;;;10.25;7.00;;;;;11.51;72.07;101557.56;5054326;28;45589;-80
2023/01/03 00:36:29;;;;;;;;;1.00;0.00;;;;;11.44;71.71;101550.28;5055909;28;45748;-79
2023/01/03 00:38:55;;;;;;;;;1.00;1.00;;;;;11.40;71.65;101551.91;5055356;28;46087;-72
2023/01/03 00:41:20;;;;;;;;;2.00;1.00;;;;;11.37;71.83;101550.88;5054840;28;45535;-77
2023/01/03 00:43:48;;;;;;;;;1.00;1.00;;;;;11.32;72.37;101553.25;5055581;28;45525;-77
2023/01/03 00:46:15;;;;;;;;;2.25;1.25;;;;;11.30;71.85;101552.31;5055545;28;45711;-77
2023/01/03 00:48:41;;;;;;;;;2.00;2.00;;;;;11.31;72.04;101556.72;5055112;28;45494;-79
2023/01/03 00:51:10;;;;;;;;;1.50;1.00;;;;;11.33;71.90;101555.06;5048092;28;45528;-69
2023/01/03 00:53:37;;;;;;;;;3.75;3.75;;;;;11.28;72.21;101560.13;5053144;28;45400;-67
2023/01/03 00:56:05;;;;;;;;;2.25;2.25;;;;;11.36;72.12;101565.69;5055512;28;45458;-80
2023/01/03 00:58:32;;;;;;;;;1.00;1.00;;;;;11.24;72.01;101544.19;5055018;28;46335;-70
2023/01/03 01:01:06;;;;;;;;;3.00;2.00;;;;;11.21;71.75;101531.00;5054770;28;45414;-71
2023/01/03 01:03:32;;;;;;;;;4.25;4.00;;;;;11.46;71.69;101569.56;5054985;28;45445;-68
2023/01/03 01:05:58;;;;;;;;;3.25;2.25;;;;;11.35;72.41;101564.75;5055539;28;45716;-71
2023/01/03 01:08:23;;;;;;;;;2.25;1.75;;;;;11.32;72.20;101569.88;5051739;28;46402;-81
2023/01/03 01:11:00;;;;;;;;;2.00;2.00;;;;;11.35;72.10;101564.75;5055078;28;45442;-79
2023/01/03 01:13:28;;;;;;;;;1.00;1.00;;;;;11.36;71.61;101563.06;5055262;28;45581;-79
2023/01/03 01:15:54;;;;;;;;;3.00;1.00;;;;;11.11;70.98;101512.28;5052698;28;45408;-77
2023/01/03 01:18:20;;;;;;;;;2.00;2.00;;;;;11.33;71.64;101563.81;5054915;28;45305;-80
2023/01/03 01:20:45;;;;;;;;;3.00;2.00;;;;;11.28;72.31;101546.13;5055090;28;45537;-69
2023/01/03 01:23:11;;;;;;;;;1.75;1.50;;;;;11.30;72.13;101545.38;5054538;28;46825;-74
2023/01/03 01:25:36;;;;;;;;;2.00;1.00;;;;;11.37;72.03;101553.50;5054572;28;45504;-80
2023/01/03 01:28:02;;;;;;;;;2.50;2.00;;;;;11.40;71.85;101558.84;5054377;28;46101;-73
2023/01/03 01:30:28;;;;;;;;;2.75;2.00;;;;;11.41;71.81;101560.63;5054428;28;45380;-76
2023/01/03 01:32:53;;;;;;;;;1.50;1.50;;;;;11.43;71.81;101566.81;5054392;28;45802;-76
2023/01/03 01:35:19;;;;;;;;;5.25;4.25;;;;;11.43;71.61;101564.22;5054969;28;45445;-66
2023/01/03 01:37:44;;;;;;;;;3.00;3.00;;;;;11.43;71.64;101566.81;5054187;28;45924;-80
2023/01/03 01:40:10;;;;;;;;;3.00;2.00;;;;;11.43;71.40;101567.72;5054527;28;45449;-78
2023/01/03 01:45:19;;;;;;;;;2.00;2.00;;;;;11.35;71.93;101575.22;5054936;28;45383;-81
2023/01/03 01:47:59;;;;;;;;;1.00;1.00;;;;;11.34;71.69;101569.97;5054106;28;45363;-79
2023/01/03 01:50:30;;;;;;;;;0.25;0.00;;;;;11.32;71.40;101566.34;5051983;28;45656;-73
2023/01/03 01:53:06;;;;;;;;;0.00;0.00;;;;;11.28;71.04;101570.56;5052433;28;45412;-80
2023/01/03 01:55:42;;;;;;;;;0.00;0.00;;;;;11.14;71.20;101554.28;5053664;28;45430;-80
2023/01/03 01:58:08;;;;;;;;;0.25;0.25;;;;;11.19;71.60;101564.94;5054193;28;45504;-67
2023/01/03 02:00:36;;;;;;;;;1.00;1.00;;;;;11.09;72.27;101573.22;5053984;28;45405;-79
2023/01/03 02:03:03;;;;;;;;;0.25;0.25;;;;;11.04;71.98;101566.88;5054226;28;45336;-79
2023/01/03 02:05:31;;;;;;;;;0.00;0.00;;;;;11.01;72.14;101578.09;5048858;28;45597;-75
2023/01/03 02:07:58;;;;;;;;;1.00;1.00;;;;;10.71;72.25;101530.56;5051818;28;45472;-80
2023/01/03 02:10:41;;;;;;;;;5.00;4.00;;;;;10.89;73.68;101582.78;5054332;28;45504;-71
2023/01/03 02:13:32;;;;;;;;;4.00;4.00;;;;;10.84;72.97;101582.56;5051080;28;45809;-81
2023/01/03 02:16:16;;;;;;;;;3.75;3.00;;;;;10.83;73.15;101580.78;5048768;28;45618;-80
2023/01/03 02:19:03;;;;;;;;;2.00;2.00;;;;;10.84;72.58;101577.34;5049904;28;46151;-68
2023/01/03 02:22:09;;;;;;;;;2.50;2.00;;;;;9.96;72.78;101427.00;5053489;28;45385;-69
2023/01/03 02:24:53;;;;;;;;;2.75;2.00;;;;;10.83;73.05;101586.00;5051797;28;45447;-79
2023/01/03 02:27:53;;;;;;;;;3.25;2.00;;;;;10.80;72.94;101587.56;5053073;28;45378;-74
2023/01/03 02:30:35;;;;;;;;;3.00;3.00;;;;;10.77;73.60;101603.13;5054294;28;45610;-78
2023/01/03 02:33:19;;;;;;;;;3.75;3.75;;;;;10.77;73.59;101609.25;5051938;28;45490;-80
2023/01/03 02:36:25;;;;;;;;;2.00;2.00;;;;;10.77;73.55;101609.25;5044829;28;45431;-79
2023/01/03 02:39:01;;;;;;;;;2.00;2.00;;;;;10.79;73.27;101610.22;5053600;28;45423;-81
2023/01/03 02:41:40;;;;;;;;;4.00;4.00;;;;;10.80;73.44;101613.72;5053538;28;46895;-81
2023/01/03 02:44:56;;;;;;;;;2.50;2.00;;;;;10.80;73.73;101619.81;5052736;28;45462;-79
2023/01/03 02:47:29;;;;;;;;;1.75;1.25;;;;;10.63;73.39;101590.31;4979069;28;45639;-67
2023/01/03 02:50:00;;;;;;;;;2.00;1.75;;;;;10.80;73.39;101614.59;5048902;28;45546;-74
2023/01/03 02:52:30;;;;;;;;;1.75;1.75;;;;;10.85;73.30;101618.34;5053619;28;45413;-67
2023/01/03 02:54:56;;;;;;;;;1.00;1.00;;;;;10.80;73.07;101619.81;5053460;28;45516;-76
2023/01/03 02:57:30;;;;;;;;;1.75;1.75;;;;;10.82;72.66;101615.56;5055774;28;45564;-75
2023/01/03 03:00:07;;;;;;;;;2.25;2.25;;;;;10.83;72.71;101627.81;5054293;28;45255;-76
2023/01/03 03:02:35;;;;;;;;;9.00;7.75;;;;;10.82;72.91;101619.91;5057029;28;46134;-75
2023/01/03 03:05:07;;;;;;;;;1.00;1.00;;;;;10.80;73.06;101619.81;5057639;28;45639;-76
2023/01/03 03:07:35;;;;;;;;;1.00;0.25;;;;;10.78;72.85;101620.59;5056951;28;45512;-79
2023/01/03 03:15:45;;;;;;;;;0.00;0.00;;;;;10.67;72.51;101612.25;5054379;28;45471;-68
2023/01/03 03:18:17;;;;;;;;;0.25;0.00;;;;;10.57;73.13;101618.78;5055945;28;45585;-81
2023/01/03 03:26:20;;;;;;;;;0.50;0.00;;;;;10.22;73.75;101617.06;5054186;28;45366;-69
2023/01/03 03:28:50;;;;;;;;;0.00;0.00;;;;;10.17;73.60;101611.63;5055979;28;45498;-76
2023/01/03 03:31:39;;;;;;;;;1.00;0.00;;;;;10.16;73.99;101621.13;5054268;28;45379;-68
2023/01/03 03:34:12;;;;;;;;;0.25;0.00;;;;;10.19;73.98;101624.75;5055816;28;46091;-70
2023/01/03 03:36:59;;;;;;;;;0.00;0.00;;;;;10.22;73.91;101632.72;5054374;28;45407;-67
2023/01/03 03:45:33;;;;;;;;;1.00;1.00;;;;;10.09;73.37;101595.56;5014836;28;45926;-68
2023/01/03 03:48:14;;;;;;;;;2.75;2.00;;;;;10.23;73.45;101629.31;5057676;28;45592;-81
2023/01/03 03:51:04;;;;;;;;;2.00;2.00;;;;;10.23;73.31;101624.06;5057223;28;45562;-69
2023/01/03 03:53:35;;;;;;;;;0.00;0.00;;;;;10.26;73.10;101618.97;5047032;28;45495;-80
2023/01/03 03:56:13;;;;;;;;;2.00;1.50;;;;;10.26;73.62;101618.97;5056852;28;45913;-74
2023/01/03 03:58:40;;;;;;;;;3.50;2.75;;;;;10.29;73.82;101624.38;5058169;28;45355;-68
2023/01/03 04:01:09;;;;;;;;;3.00;3.00;;;;;10.30;73.50;101626.19;5058085;28;45250;-67
2023/01/03 04:03:38;;;;;;;;;3.00;2.50;;;;;10.27;73.62;101620.78;5058010;28;45647;-70
2023/01/03 04:06:14;;;;;;;;;0.25;0.25;;;;;10.29;73.70;101621.75;5056274;28;46175;-80
2023/01/03 04:08:40;;;;;;;;;2.00;1.50;;;;;10.30;73.45;101626.19;5057465;28;45606;-71
2023/01/03 04:11:06;;;;;;;;;1.00;1.00;;;;;10.10;73.46;101592.13;5057753;28;45494;-78
2023/01/03 04:13:37;;;;;;;;;0.75;0.75;;;;;10.31;73.86;101633.22;5057845;28;45300;-82
2023/01/03 04:16:04;;;;;;;;;1.00;1.00;;;;;10.09;74.17;101592.97;5057600;28;45419;-80
2023/01/03 04:18:29;;;;;;;;;0.00;0.00;;;;;10.12;73.79;101606.16;5057196;28;45776;-75
2023/01/03 04:20:55;;;;;;;;;0.00;0.00;;;;;10.22;74.11;101633.59;5057814;28;45497;-79
2023/01/03 04:23:21;;;;;;;;;0.00;0.00;;;;;10.19;73.94;101628.25;5058691;28;45330;-79
2023/01/03 04:25:48;;;;;;;;;0.00;0.00;;;;;10.20;73.86;101636.97;5057255;28;45584;-79
2023/01/03 04:28:14;;;;;;;;;0.00;0.00;;;;;10.16;73.79;101625.47;5057217;28;45399;-77
2023/01/03 04:30:39;;;;;;;;;0.00;0.00;;;;;10.22;73.61;101632.72;5057359;28;45514;-78
2023/01/03 04:33:05;;;;;;;;;0.00;0.00;;;;;10.22;73.68;101631.00;5055017;28;47214;-81
2023/01/03 04:35:31;;;;;;;;;0.00;0.00;;;;;10.14;73.88;101630.59;5056361;28;45280;-80
2023/01/03 04:37:57;;;;;;;;;0.50;0.00;;;;;10.15;73.35;101635.03;5041767;28;45497;-71
2023/01/03 04:40:23;;;;;;;;;0.00;0.00;;;;;10.15;73.14;101629.81;5056909;28;45463;-80
2023/01/03 04:45:33;;;;;;;;;4.00;3.25;;;;;10.12;73.09;101628.75;5056439;28;45689;-78
2023/01/03 04:47:59;;;;;;;;;4.00;3.25;;;;;10.09;72.85;101626.00;5056302;28;45550;-76
2023/01/03 04:50:25;;;;;;;;;1.00;1.00;;;;;9.87;73.49;101601.47;5056766;28;45485;-68
2023/01/03 04:52:50;;;;;;;;;0.00;0.00;;;;;9.95;73.28;101630.56;5057431;28;45480;-68
2023/01/03 04:55:16;;;;;;;;;0.00;0.00;;;;;9.87;73.30;101630.16;5056160;28;45675;-68
2023/01/03 04:57:41;;;;;;;;;0.00;0.00;;;;;9.80;73.62;101628.06;5056755;28;45882;-71
2023/01/03 05:00:07;;;;;;;;;1.00;0.00;;;;;9.73;73.98;101629.47;5057304;28;46004;-78
2023/01/03 05:02:33;;;;;;;;;0.00;0.00;;;;;9.64;74.59;101623.78;5056416;28;45408;-68
2023/01/03 05:04:59;;;;;;;;;0.00;0.00;;;;;9.54;75.05;101629.34;5056017;28;45771;-78
2023/01/03 05:07:26;;;;;;;;;0.00;0.00;;;;;9.50;74.94;101632.59;5040371;28;45293;-69
2023/01/03 05:09:52;;;;;;;;;1.00;1.00;;;;;9.42;75.21;101631.31;5057180;28;45403;-71
2023/01/03 05:12:18;;;;;;;;;1.00;1.00;;;;;9.16;74.85;101596.94;5056669;28;45574;-70
2023/01/03 05:14:43;;;;;;;;;0.00;0.00;;;;;9.28;74.91;101636.69;5056596;28;45961;-67
2023/01/03 05:17:09;;;;;;;;;1.00;1.00;;;;;9.23;75.12;101638.19;5056485;28;46363;-67
2023/01/03 05:25:48;;;;;;;;;2.50;2.00;;;;;9.20;75.67;101648.44;5057197;28;45307;-76
2023/01/03 05:27:49;;;;;;;;;0.00;0.00;;;;;9.04;75.81;101662.38;5056698;28;45502;-79
2023/01/03 05:30:14;;;;;;;;;0.00;0.00;;;;;8.99;75.39;101668.13;5056835;28;45650;-67
2023/01/03 05:32:40;;;;;;;;;0.00;0.00;;;;;8.95;75.23;101669.66;5057620;28;45296;-71
2023/01/03 05:35:06;;;;;;;;;0.25;0.00;;;;;8.91;75.58;101686.88;5055384;28;46053;-75
2023/01/03 05:37:31;;;;;;;;;1.00;0.00;;;;;8.87;75.78;101686.59;5056028;28;45689;-83
2023/01/03 05:39:57;;;;;;;;;1.00;0.00;;;;;8.84;75.95;101684.72;5056411;28;45484;-70
2023/01/03 05:42:22;;;;;;;;;0.00;0.00;;;;;8.80;75.81;101685.38;5056744;28;45294;-82
2023/01/03 05:44:48;;;;;;;;;0.00;0.00;;;;;8.81;75.66;101688.88;5055993;28;45444;-81
2023/01/03 05:47:13;;;;;;;;;0.00;0.00;;;;;8.81;75.75;101689.75;5055752;28;45730;-81
2023/01/03 05:49:39;;;;;;;;;0.00;0.00;;;;;8.83;75.58;101692.44;5056028;28;45450;-69
2023/01/03 05:52:04;;;;;;;;;0.00;0.00;;;;;8.84;76.06;101686.44;5056356;28;45219;-67
2023/01/03 05:54:30;;;;;;;;;0.00;0.00;;;;;8.83;76.06;101690.75;5056420;28;45551;-67
2023/01/03 05:56:55;;;;;;;;;1.00;0.50;;;;;8.91;76.27;101697.31;5055800;28;45663;-67
2023/01/03 05:59:21;;;;;;;;;1.00;0.00;;;;;8.93;76.21;101705.19;5056369;28;45377;-78
2023/01/03 06:01:47;;;;;;;;;0.75;0.75;;;;;8.98;75.91;101705.44;5055784;28;45451;-67
2023/01/03 06:04:13;;;;;;;;;0.00;0.00;;;;;8.99;75.28;101705.50;5056298;28;45517;-68
2023/01/03 06:06:38;;;;;;;;;0.00;0.00;;;;;9.00;75.58;101707.31;5053177;28;45745;-79
2023/01/03 06:09:04;;;;;;;;;1.00;0.00;;;;;9.06;74.94;101706.75;5054700;28;45384;-67
2023/01/03 06:11:30;;;;;;;;;0.00;0.00;;;;;9.09;74.49;101712.13;5055086;28;45561;-68
2023/01/03 06:13:55;;;;;;;;;0.00;0.00;;;;;9.10;74.59;101714.81;5055375;28;46119;-74
2023/01/03 06:19:07;;;;;;;;;0.00;0.00;;;;;9.11;74.44;101721.84;5052806;28;45525;-68
2023/01/03 06:21:33;;;;;;;;;0.00;0.00;;;;;9.12;74.12;101720.13;5055348;28;45355;-81
2023/01/03 06:23:59;;;;;;;;;1.00;0.00;;;;;9.13;73.85;101716.69;5053353;28;46133;-77
2023/01/03 06:26:24;;;;;;;;;0.00;0.00;;;;;9.10;73.50;101719.16;5052671;28;45569;-80
2023/01/03 06:28:50;;;;;;;;;0.00;0.00;;;;;9.09;73.62;101715.66;5056109;28;45308;-82
2023/01/03 06:31:17;;;;;;;;;1.75;1.00;;;;;8.72;73.87;101663.22;5059287;28;45478;-79
2023/01/03 06:33:43;;;;;;;;;0.75;0.00;;;;;9.03;74.44;101714.41;5057344;28;45473;-76
2023/01/03 06:36:14;;;;;;;;;43.75;38.50;;;;;9.02;74.46;101716.13;5058407;28;46270;-67
2023/01/03 06:38:40;;;;;;;;;68.25;52.75;;;;;9.03;74.68;101720.53;5058188;28;45429;-72
2023/01/03 06:41:06;;;;;;;;;17.00;14.75;;;;;9.07;74.54;101714.69;5058161;28;45454;-67
2023/01/03 06:43:31;;;;;;;;;6.25;4.25;;;;;9.04;74.47;101724.03;5057649;28;45647;-70
2023/01/03 06:54:28;;;;;;;;;34.50;30.50;;;;;9.04;75.00;101706.66;5056305;28;45854;-79
2023/01/03 06:56:54;;;;;;;;;58.25;46.25;;;;;9.03;74.78;101714.41;5037078;28;45707;-81
2023/01/03 06:59:20;;;;;;;;;53.50;44.50;;;;;9.04;74.72;101724.03;5057024;28;45488;-67
2023/01/03 07:01:48;;;;;;;;;14.00;13.50;;;;;9.04;74.59;101724.91;5059116;28;45338;-79
2023/01/03 07:04:14;;;;;;;;;19.50;16.75;;;;;9.03;74.21;101723.13;5058001;28;45651;-77
2023/01/03 07:06:40;;;;;;;;;22.00;20.25;;;;;8.98;74.39;101716.75;5058380;28;45465;-67
2023/01/03 07:09:07;;;;;;;;;9.75;8.50;;;;;8.92;74.25;101725.13;5042334;28;45517;-68
2023/01/03 07:11:33;;;;;;;;;8.75;8.50;;;;;8.88;74.57;101717.06;5058328;28;45304;-69
2023/01/03 07:13:58;;;;;;;;;2.00;2.00;;;;;8.82;74.64;101725.44;5057422;28;45417;-68
2023/01/03 07:16:30;;;;;;;;;5.50;4.00;;;;;8.76;74.41;101735.53;5058690;28;45372;-82
2023/01/03 07:18:56;;;;;;;;;110.25;103.50;;;;;8.72;74.62;101736.16;5058269;28;45442;-77
2023/01/03 07:21:27;;;;;;;;;13.75;10.50;;;;;8.67;75.12;101732.38;5057925;28;45325;-81
2023/01/03 07:23:54;;;;;;;;;19.75;16.00;;;;;8.60;75.54;101733.75;5052177;28;46193;-72
2023/01/03 07:26:20;;;;;;;;;20.75;20.00;;;;;8.59;75.09;101744.09;5057319;28;45733;-68
2023/01/03 07:28:46;;;;;;;;;8.75;8.50;;;;;8.54;74.98;101738.63;5056889;28;45447;-81
2023/01/03 07:31:12;;;;;;;;;1.75;1.00;;;;;8.46;75.11;101740.78;5056937;28;45787;-72
2023/01/03 07:33:38;;;;;;;;;3.00;3.00;;;;;8.41;75.21;101749.09;5056388;28;45909;-83
2023/01/03 07:36:07;;;;;;;;;66.33;55.33;;;;;8.39;74.86;101750.72;5057406;28;45395;-80
2023/01/03 07:38:32;;;;;;;;;20.00;18.75;;;;;8.29;75.34;101754.47;5055037;28;45413;-77
2023/01/03 07:41:00;;;;;;;;;5.25;5.25;;;;;8.33;75.15;101749.53;5057411;28;45455;-78
2023/01/03 07:43:38;;;;;;;;;28.25;28.25;;;;;8.38;74.88;101749.81;5057837;28;45929;-77
2023/01/03 07:46:23;;;;;;;;;7.75;7.75;;;;;8.41;75.02;101751.69;5057648;28;45325;-68
2023/01/03 07:48:52;;;;;;;;;7.25;7.00;;;;;8.43;75.51;101755.31;5043038;28;45371;-78
2023/01/03 07:51:20;;;;;;;;;8.00;6.50;;;;;8.44;75.00;101754.53;5058121;28;45813;-75
2023/01/03 07:53:49;;;;;;;;;6.75;5.75;;;;;8.42;75.19;101759.63;5057355;28;45403;-67
2023/01/03 07:56:18;;;;;;;;;78.00;59.25;;;;;8.38;75.46;101760.25;5057064;28;45619;-75
2023/01/03 07:58:44;;;;;;;;;14.75;12.75;;;;;8.39;75.66;101758.53;5057795;28;45455;-68
2023/01/03 08:01:21;;;;;;;;;12.00;8.00;;;;;8.41;75.45;101767.31;5057810;28;45534;-76
2023/01/03 08:03:46;;;;;;;;;68.00;51.75;;;;;8.47;75.32;101760.78;5056666;28;45371;-75
2023/01/03 08:06:15;;;;;;;;;28.75;24.75;;;;;8.50;75.39;101763.59;5056896;28;45529;-77
2023/01/03 08:08:41;;;;;;;;;17.25;15.00;;;;;8.47;75.31;101771.19;5057475;28;45527;-70
2023/01/03 08:13:53;;;;;;;;;13.75;12.00;;;;;8.45;75.06;101771.94;5057562;28;45491;-69
2023/01/03 08:16:19;;;;;;;;;18.25;15.75;;;;;8.46;75.20;101769.41;5057354;28;45367;-77
2023/01/03 08:18:44;;;;;;;;;32.00;28.25;;;;;8.47;75.22;101758.19;5057006;28;45814;-82
2023/01/03 08:21:12;;;;;;;;;17.75;15.25;;;;;8.56;75.23;101774.34;5057386;28;45434;-68
2023/01/03 08:23:38;;;;;;;;;74.75;56.00;;;;;8.42;75.18;101737.91;5056799;28;46161;-68
2023/01/03 08:26:10;;;;;;;;;19.00;16.50;;;;;8.62;74.98;101772.91;5057381;28;45459;-68
2023/01/03 08:28:36;;;;;;;;;18.75;16.75;;;;;8.61;74.97;101772.00;5057341;28;45371;-71
2023/01/03 08:31:08;;;;;;;;;14.75;13.50;;;;;8.68;74.91;101779.38;5057591;28;45395;-68
2023/01/03 08:33:42;;;;;;;;;14.75;9.25;;;;;8.73;74.98;101775.34;5056412;28;45485;-79
2023/01/03 08:36:09;;;;;;;;;12.75;8.25;;;;;8.79;75.08;101772.16;5056818;28;45591;-69
2023/01/03 08:38:45;;;;;;;;;7.75;7.00;;;;;8.78;74.95;101775.59;5045975;28;45502;-69
2023/01/03 08:41:14;;;;;;;;;9.00;8.00;;;;;8.88;74.76;101780.50;5053821;28;45418;-68
2023/01/03 08:43:44;;;;;;;;;15.25;13.25;;;;;8.98;74.47;101784.53;5057282;28;46313;-70
2023/01/03 08:46:11;;;;;;;;;18.75;16.00;;;;;9.07;74.10;101791.94;5056913;28;45395;-69
2023/01/03 08:48:37;;;;;;;;;10.00;8.25;;;;;9.14;73.69;101800.22;5057022;28;45438;-69
2023/01/03 08:51:03;;;;;;;;;9.00;8.00;;;;;9.22;73.49;101803.25;5055420;28;45384;-68
2023/01/03 08:53:28;;;;;;;;;4.00;4.00;;;;;9.28;73.17;101806.19;5056647;28;46165;-73
2023/01/03 08:55:54;;;;;;;;;4.00;3.25;;;;;9.31;73.39;101808.97;5056959;28;45348;-82
2023/01/03 08:58:20;;;;;;;;;3.50;3.00;;;;;9.40;73.44;101816.41;5057290;28;45490;-68
2023/01/03 09:00:46;;;;;;;;;6.50;5.00;;;;;8.80;73.06;101695.78;5056044;28;45399;-67
2023/01/03 09:03:11;;;;;;;;;4.00;3.75;;;;;9.49;73.15;101811.69;5056512;28;45438;-71
2023/01/03 09:05:37;;;;;;;;;4.50;4.00;;;;;9.48;73.27;101809.00;5056359;28;45336;-70
2023/01/03 09:08:02;;;;;;;;;15.50;14.75;;;;;9.51;73.21;101812.69;5056800;28;45543;-75
2023/01/03 09:10:28;;;;;;;;;4.00;4.00;;;;;9.58;72.88;101803.47;5055919;28;46131;-69
2023/01/03 09:12:53;;;;;;;;;11.00;8.00;;;;;9.63;72.66;101808.91;5040872;28;46059;-68
2023/01/03 09:15:19;;;;;;;;;10.00;9.75;;;;;9.68;72.76;101812.69;5055998;28;45454;-75
2023/01/03 09:17:46;;;;;;;;;7.75;6.50;;;;;9.73;72.50;101817.34;5039476;28;45648;-78
2023/01/03 09:20:14;;;;;;;;;8.25;5.00;;;;;9.81;72.46;101825.59;5049105;28;45446;-68
2023/01/03 09:22:40;;;;;;;;;24.00;23.00;;;;;9.77;73.03;101821.03;5039902;28;45508;-68
2023/01/03 09:25:05;;;;;;;;;20.50;16.75;;;;;9.78;73.18;101828.03;5056951;28;45378;-70
2023/01/03 09:27:31;;;;;;;;;13.00;10.75;;;;;9.77;72.72;101823.63;5056279;28;45462;-68
2023/01/03 09:29:56;;;;;;;;;5.00;4.25;;;;;10.24;72.19;101826.94;5055917;28;45518;-68
2023/01/03 09:32:22;;;;;;;;;17.00;14.00;;;;;11.15;69.68;101819.31;5056364;28;45894;-68
2023/01/03 09:34:47;;;;;;;;;28.50;24.75;;;;;11.98;66.51;101824.88;5045264;28;45318;-71
2023/01/03 09:37:13;;;;;;;;;5.00;4.00;;;;;12.68;64.74;101819.19;5050724;28;45196;-80
2023/01/03 09:39:41;;;;;;;;;5.00;4.00;;;;;13.16;62.66;101826.38;5055842;28;46230;-67
2023/01/03 09:45:06;;;;;;;;;6.00;5.25;;;;;14.09;61.32;101818.56;5056064;28;45429;-69
2023/01/03 09:47:36;;;;;;;;;4.75;4.75;;;;;14.43;58.79;101817.13;5055794;28;45612;-68
2023/01/03 09:50:02;;;;;;;;;1.00;1.00;;;;;14.67;58.61;101815.34;5056706;28;45496;-77
2023/01/03 10:04:31;;;;;;;;;8.00;6.67;;;;;15.73;55.74;101840.63;5056840;28;45327;-76
2023/01/03 10:07:02;;;;;;;;;4.33;4.33;;;;;16.04;56.31;101834.50;5059041;28;45514;-77
2023/01/03 10:09:40;;;;;;;;;5.00;3.00;;;;;16.25;55.17;101834.19;5059957;28;45458;-71
2023/01/03 10:12:17;;;;;;;;;7.00;7.00;;;;;16.25;53.47;101832.47;5059585;28;45257;-78
2023/01/03 10:14:55;;;;;;;;;6.67;5.00;;;;;16.02;54.01;101828.28;5058805;28;45218;-80
2023/01/03 10:17:32;;;;;;;;;9.00;8.00;;;;;15.81;54.31;101837.34;5059072;28;45515;-73
2023/01/03 10:20:28;;;;;;;;;11.25;10.75;;;;;15.71;55.29;101838.78;5059054;28;45322;-69
2023/01/03 10:22:55;;;;;;;;;4.67;3.33;;;;;15.74;54.70;101834.50;5059279;28;45414;-73
2023/01/03 10:25:22;;;;;;;;;5.00;5.00;;;;;15.82;55.00;101833.00;5058516;28;46009;-75
2023/01/03 10:27:50;;;;;;;;;7.67;6.33;;;;;16.04;56.04;101834.50;5059783;28;45428;-81
2023/01/03 10:30:18;;;;;;;;;7.00;7.00;;;;;16.16;54.59;101824.28;5058308;28;45443;-74
2023/01/03 10:33:06;;;;;;;;;7.33;7.00;;;;;16.29;54.04;101829.06;5058924;28;45410;-74
2023/01/03 10:35:34;;;;;;;;;10.00;9.00;;;;;16.21;53.87;101813.88;5058307;28;45551;-69
2023/01/03 10:38:00;;;;;;;;;7.00;5.00;;;;;16.38;53.83;101809.06;5043861;28;45606;-80
2023/01/03 10:40:37;;;;;;;;;5.00;5.00;;;;;16.49;54.50;101812.84;5059638;28;45541;-80
2023/01/03 10:43:26;;;;;;;;;4.33;4.00;;;;;16.62;54.77;101814.06;5059196;28;45522;-68
2023/01/03 10:45:55;;;;;;;;;2.00;1.00;;;;;16.61;53.24;101809.63;5047804;28;45518;-71
2023/01/03 10:48:22;;;;;;;;;3.00;1.33;;;;;16.48;52.74;101806.69;5058556;28;45530;-68
2023/01/03 10:50:49;;;;;;;;;1.00;1.00;;;;;16.49;53.76;101811.13;5058810;28;45296;-70
2023/01/03 10:53:18;;;;;;;;;3.00;3.00;;;;;16.60;53.28;101806.09;5058126;28;45482;-69
2023/01/03 10:55:51;;;;;;;;;2.00;2.00;;;;;16.59;54.18;101796.44;5057976;28;46072;-71
2023/01/03 10:58:26;;;;;;;;;2.00;1.67;;;;;16.76;53.98;101795.94;5057049;28;45483;-68
2023/01/03 11:01:02;;;;;;;;;9.00;7.33;;;;;16.90;53.36;101797.19;5057603;28;45401;-75
2023/01/03 11:03:28;;;;;;;;;7.33;5.67;;;;;16.88;53.48;101794.50;5056719;28;45441;-77
2023/01/03 11:05:56;;;;;;;;;1.33;1.33;;;;;16.96;54.06;101792.06;5057518;28;45875;-76
2023/01/03 11:08:36;;;;;;;;;1.67;1.67;;;;;16.92;52.99;101787.56;5057205;28;45568;-75
2023/01/03 11:11:02;;;;;;;;;2.00;2.00;;;;;16.96;54.06;101784.16;5056909;28;45589;-69
2023/01/03 11:13:42;;;;;;;;;1.00;1.00;;;;;17.07;54.12;101787.94;5053012;28;45500;-69
2023/01/03 11:16:16;;;;;;;;;1.67;1.67;;;;;16.89;53.16;101767.28;5041066;28;46008;-80
2023/01/03 11:18:43;;;;;;;;;1.00;1.00;;;;;16.90;53.30;101784.00;5056995;28;45351;-77
2023/01/03 11:21:29;;;;;;;;;2.00;0.00;;;;;16.86;52.68;101779.50;5056682;28;45375;-72
2023/01/03 11:24:06;;;;;;;;;0.00;0.00;;;;;16.92;53.23;101784.03;5041295;28;45316;-79
2023/01/03 11:26:54;;;;;;;;;1.00;1.00;;;;;17.01;52.44;101779.88;5057113;28;45542;-68
2023/01/03 11:30:10;;;;;;;;;2.00;2.00;;;;;17.14;53.13;101783.69;5056338;28;45425;-72
2023/01/03 11:32:45;;;;;;;;;1.00;1.00;;;;;17.22;51.51;101774.19;5019046;28;45492;-79
2023/01/03 11:35:34;;;;;;;;;0.00;0.00;;;;;17.08;52.38;101762.41;5053077;28;45581;-70
2023/01/03 11:38:14;;;;;;;;;1.33;1.33;;;;;17.29;51.83;101776.09;5055853;28;47173;-70
2023/01/03 11:41:02;;;;;;;;;0.00;0.00;;;;;17.24;51.73;101772.47;5056746;28;45396;-75
2023/01/03 11:43:48;;;;;;;;;1.00;1.00;;;;;17.38;52.17;101777.16;5056487;28;45431;-69
2023/01/03 11:46:48;;;;;;;;;1.00;1.00;;;;;17.49;50.68;101773.91;5057239;28;45591;-71
2023/01/03 11:49:27;;;;;;;;;4.00;4.00;;;;;17.41;51.14;101771.97;5056339;28;45516;-73
2023/01/03 11:52:16;;;;;;;;;0.00;0.00;;;;;17.32;50.74;101772.63;5056649;28;45311;-69
2023/01/03 11:55:07;;;;;;;;;3.00;1.33;;;;;17.34;51.42;101765.63;5056247;28;45599;-75
2023/01/03 11:57:41;;;;;;;;;0.00;0.00;;;;;17.18;50.83;101764.41;5008646;28;1371918;-69
2023/01/03 12:00:27;;;;;;;;;1.33;1.00;;;;;17.22;50.88;101766.25;5037411;28;46331;-71
2023/01/03 12:03:21;;;;;;;;;2.33;2.00;;;;;17.17;51.58;101760.00;5041517;28;45507;-72
2023/01/03 12:06:08;;;;;;;;;7.00;7.00;;;;;17.26;50.85;101754.91;5057663;28;45525;-75
2023/01/03 12:08:44;;;;;;;;;1.33;0.67;;;;;17.28;50.27;101755.81;5057669;28;45756;-79
2023/01/03 12:11:36;;;;;;;;;3.33;3.00;;;;;17.21;50.77;101764.47;5057188;28;46173;-71
2023/01/03 12:14:13;;;;;;;;;3.00;3.00;;;;;17.23;51.21;101753.94;5057049;28;45426;-70
2023/01/03 12:17:03;;;;;;;;;2.00;1.00;;;;;17.21;50.64;101758.28;5042159;28;45585;-70
2023/01/03 12:19:48;;;;;;;;;8.00;4.00;;;;;17.14;50.41;101744.06;5055985;28;45517;-78
2023/01/03 12:22:25;;;;;;;;;2.00;1.00;;;;;17.20;50.34;101744.19;5055242;28;46251;-69
2023/01/03 12:24:58;;;;;;;;;1.00;1.00;;;;;17.17;50.65;101725.66;5057368;28;45334;-72
2023/01/03 12:27:39;;;;;;;;;2.00;2.00;;;;;17.15;50.54;101745.88;5056253;28;45589;-68
2023/01/03 12:30:23;;;;;;;;;11.00;10.33;;;;;17.16;50.44;101745.00;5057275;28;45577;-69
2023/01/03 12:32:54;;;;;;;;;1.00;1.00;;;;;17.27;50.38;101738.22;5056644;28;46021;-71
2023/01/03 12:35:36;;;;;;;;;8.67;7.00;;;;;17.30;49.36;101732.09;5057153;28;45524;-80
2023/01/03 12:38:05;;;;;;;;;3.00;3.00;;;;;17.33;50.15;101741.81;5056102;28;45453;-69
2023/01/03 12:40:47;;;;;;;;;1.00;0.00;;;;;17.14;49.35;101722.94;5057108;28;47108;-69
2023/01/03 12:43:18;;;;;;;;;6.33;6.33;;;;;17.18;49.77;101716.88;5056854;28;46144;-71
2023/01/03 12:46:10;;;;;;;;;29.00;28.75;;;;;17.27;49.40;101719.72;5056008;28;45501;-74